Jefferson, South Dakota
Current Conditions -  °F | °C
As of 2:52 PM on Sunday 21 Dec 2014 (Local Time) from KSUX Reporting Station
Overcast Overcast  
Wind Chill: 33°   Ceiling: 800
Heat Index: 42°   Visibility: 8mi
Dew Point: 38°   Wind: 20mph
Humidity: 85%   Direction: 180°S
Pressure: 29.69"   Gusts: 25mph
Location:  42.6°N, 96.56°W
Report Text: KSUX 212052Z 18017G22KT 8SM OVC008 06/03 A2969 RMK AO2 SLP061 T00560033 56017
Loading
Personal Weather Stations






























Interactive Weather Map New forecast layout! Learn more

10-Day Weather Forecast

Advertisements
Track Severe Weather on mobile